Time;durP1;ratioP1;P1;durP2;ratioP2;P2;SDS_P1;SDS_P2;PMS_P1;PMS_P2;Temp;Humidity;BMP_temperature;BMP_pressure;BME280_temperature;BME280_humidity;BME280_pressure;Samples;Min_cycle;Max_cycle;Signal;HPM_P1;HPM_P2
2021/11/10 00:01:46;;;;;;;;;;;;;;;5.10;60.75;101801.12;4399912;32;33129;-87
2021/11/10 00:04:14;;;;;;;;;;;;;;;5.12;61.24;101799.37;4405948;32;32936;-87
2021/11/10 00:06:41;;;;;;;;;;;;;;;5.02;61.21;101797.53;4400824;32;32925;-87
2021/11/10 00:09:09;;;;;;;;;;;;;;;4.94;61.88;101793.97;4395352;32;33959;-88
2021/11/10 00:11:36;;;;;;;;;;;;;;;5.10;61.53;101798.50;4399448;32;32669;-88
2021/11/10 00:14:04;;;;;;;;;;;;;;;5.05;61.16;101796.72;4395661;32;32525;-88
2021/11/10 00:16:31;;;;;;;;;;;;;;;5.13;61.26;101795.94;4408238;32;34522;-88
2021/11/10 00:18:59;;;;;;;;;;;;;;;4.92;61.40;101790.44;4406051;32;33104;-88
2021/11/10 00:21:26;;;;;;;;;;;;;;;5.00;61.17;101795.78;4402415;32;33350;-87
2021/11/10 00:23:54;;;;;;;;;;;;;;;5.02;61.12;101791.44;4402196;32;33111;-88
2021/11/10 00:26:21;;;;;;;;;;;;;;;5.01;61.32;101781.81;4401996;32;34190;-88
2021/11/10 00:28:49;;;;;;;;;;;;;;;4.80;61.65;101791.19;4398751;32;33813;-87
2021/11/10 00:31:17;;;;;;;;;;;;;;;4.63;62.46;101790.09;4406285;32;34199;-87
2021/11/10 00:33:45;;;;;;;;;;;;;;;4.91;61.53;101793.94;4403756;32;33393;-87
2021/11/10 00:36:13;;;;;;;;;;;;;;;4.64;61.97;101794.47;4397151;32;33925;-87
2021/11/10 00:38:41;;;;;;;;;;;;;;;4.75;61.79;101786.78;4388214;32;33539;-88
2021/11/10 00:41:08;;;;;;;;;;;;;;;4.75;61.32;101787.66;4431102;32;33125;-88
2021/11/10 00:43:36;;;;;;;;;;;;;;;4.79;61.10;101789.41;4418025;32;32769;-88
2021/11/10 00:46:04;;;;;;;;;;;;;;;4.70;61.64;101784.09;4418264;32;33445;-88
2021/11/10 00:48:31;;;;;;;;;;;;;;;4.75;61.30;101784.16;4412497;32;32961;-88
2021/11/10 00:50:59;;;;;;;;;;;;;;;4.46;61.80;101789.87;4414679;32;33905;-88
2021/11/10 00:53:26;;;;;;;;;;;;;;;4.48;62.19;101784.69;4417608;32;32874;-88
2021/11/10 00:55:53;;;;;;;;;;;;;;;4.75;61.45;101774.56;4420508;32;33485;-87
2021/11/10 00:58:21;;;;;;;;;;;;;;;4.72;60.97;101781.50;4418312;32;33262;-87
2021/11/10 01:00:48;;;;;;;;;;;;;;;4.58;61.71;101768.25;4418396;32;32933;-88
2021/11/10 01:03:16;;;;;;;;;;;;;;;4.73;61.07;101778.00;4408159;32;32751;-87
2021/11/10 01:05:44;;;;;;;;;;;;;;;4.44;61.59;101785.50;4420982;32;34063;-87
2021/11/10 01:08:11;;;;;;;;;;;;;;;4.14;62.83;101789.47;4408110;32;33935;-88
2021/11/10 01:10:38;;;;;;;;;;;;;;;3.97;63.46;101783.97;4415129;32;34005;-88
2021/11/10 01:13:06;;;;;;;;;;;;;;;4.11;63.14;101779.81;4408317;32;32419;-88
2021/11/10 01:15:34;;;;;;;;;;;;;;;4.33;62.24;101787.97;4418209;32;32937;-88
2021/11/10 01:18:02;;;;;;;;;;;;;;;4.28;62.08;101780.06;4418219;32;34315;-88
2021/11/10 01:20:30;;;;;;;;;;;;;;;4.24;62.08;101783.50;4409776;32;33641;-87
2021/11/10 01:22:58;;;;;;;;;;;;;;;4.49;61.36;101789.06;4407873;32;32972;-88
2021/11/10 01:25:26;;;;;;;;;;;;;;;4.47;61.44;101777.72;4419538;32;34130;-88
2021/11/10 01:27:54;;;;;;;;;;;;;;;4.37;61.58;101780.19;4416541;32;34721;-88
2021/11/10 01:30:22;;;;;;;;;;;;;;;4.45;61.29;101766.31;4431472;32;33262;-88
2021/11/10 01:32:51;;;;;;;;;;;;;;;4.51;61.03;101766.38;4407678;32;31945;-88
2021/11/10 01:35:18;;;;;;;;;;;;;;;4.59;60.56;101760.41;4418334;32;34039;-88
2021/11/10 01:37:46;;;;;;;;;;;;;;;4.45;60.90;101753.25;4417165;32;34618;-88
2021/11/10 01:40:15;;;;;;;;;;;;;;;4.37;61.17;101751.44;4419832;32;33412;-88
2021/11/10 01:42:43;;;;;;;;;;;;;;;4.34;62.01;101755.72;4410008;32;32181;-87
2021/11/10 01:45:12;;;;;;;;;;;;;;;4.48;61.38;101756.78;4401998;32;34059;-88
2021/11/10 01:47:40;;;;;;;;;;;;;;;4.23;62.12;101758.22;4402297;32;34321;-87
2021/11/10 01:50:09;;;;;;;;;;;;;;;4.34;61.28;101743.53;4386798;32;33322;-85
2021/11/10 01:52:37;;;;;;;;;;;;;;;4.13;61.91;101745.87;4407993;32;31918;-85
2021/11/10 01:55:05;;;;;;;;;;;;;;;4.10;62.10;101737.97;4400521;32;34892;-85
2021/11/10 01:57:33;;;;;;;;;;;;;;;4.18;61.97;101733.75;4406986;32;34421;-85
2021/11/10 02:00:05;;;;;;;;;;;;;;;3.73;62.61;101734.81;4407482;32;33060;-86
2021/11/10 02:02:35;;;;;;;;;;;;;;;4.20;61.75;101731.13;4400276;32;32890;-86
2021/11/10 02:05:03;;;;;;;;;;;;;;;4.39;61.10;101721.78;4393255;32;32857;-86
2021/11/10 02:07:31;;;;;;;;;;;;;;;3.86;62.28;101725.44;4413155;32;34082;-86
2021/11/10 02:09:59;;;;;;;;;;;;;;;3.89;62.31;101719.38;4390118;32;33988;-87
2021/11/10 02:12:27;;;;;;;;;;;;;;;3.78;63.88;101714.87;4403081;32;34188;-87
2021/11/10 02:14:55;;;;;;;;;;;;;;;4.19;62.81;101714.56;4380365;32;32867;-87
2021/11/10 02:17:23;;;;;;;;;;;;;;;4.31;61.69;101709.47;4403198;32;35005;-88
2021/11/10 02:19:51;;;;;;;;;;;;;;;3.78;63.64;101714.00;4402708;32;34901;-87
2021/11/10 02:22:20;;;;;;;;;;;;;;;4.00;63.33;101708.22;4419661;32;32550;-87
2021/11/10 02:24:47;;;;;;;;;;;;;;;3.94;63.32;101715.09;4394343;32;32965;-87
2021/11/10 02:27:22;;;;;;;;;;;;;;;4.17;62.50;101703.19;4419636;32;33959;-87
2021/11/10 02:29:51;;;;;;;;;;;;;;;4.44;60.79;101707.03;4404033;32;33155;-87
2021/11/10 02:32:18;;;;;;;;;;;;;;;3.99;62.51;101723.91;4395552;32;32501;-87
2021/11/10 02:34:47;;;;;;;;;;;;;;;4.09;62.59;101710.09;4407297;32;32998;-87
2021/11/10 02:37:17;;;;;;;;;;;;;;;4.29;61.30;101716.44;4406180;32;34362;-87
2021/11/10 02:39:45;;;;;;;;;;;;;;;4.12;61.66;101721.44;4386813;32;33090;-87
2021/11/10 02:42:13;;;;;;;;;;;;;;;3.99;62.24;101734.34;4399574;32;34011;-86
2021/11/10 02:44:41;;;;;;;;;;;;;;;4.14;61.74;101720.59;4406140;32;33128;-87
2021/11/10 02:47:09;;;;;;;;;;;;;;;3.96;61.77;101726.47;4403076;32;32758;-90
2021/11/10 02:49:41;;;;;;;;;;;;;;;3.68;62.92;101722.56;4407335;32;33505;-88
2021/11/10 02:52:09;;;;;;;;;;;;;;;3.70;63.02;101723.44;4397138;32;32942;-86
2021/11/10 02:54:40;;;;;;;;;;;;;;;3.72;63.04;101720.00;4399257;32;32967;-86
2021/11/10 02:57:08;;;;;;;;;;;;;;;3.79;62.62;101716.62;4402121;32;34054;-86
2021/11/10 02:59:35;;;;;;;;;;;;;;;3.89;61.99;101711.53;4399841;32;34010;-86
2021/11/10 03:02:04;;;;;;;;;;;;;;;3.79;62.06;101715.75;4400127;32;32855;-86
2021/11/10 03:04:36;;;;;;;;;;;;;;;3.74;62.31;101713.06;4396268;32;34667;-86
2021/11/10 03:07:04;;;;;;;;;;;;;;;3.59;63.00;101713.72;4401677;32;33801;-85
2021/11/10 03:09:33;;;;;;;;;;;;;;;3.84;62.35;101717.56;4403721;32;34722;-87
2021/11/10 03:12:04;;;;;;;;;;;;;;;3.91;62.28;101715.06;4396398;32;33440;-90
2021/11/10 03:14:44;;;;;;;;;;;;;;;3.61;62.61;101716.38;4417586;32;33628;-91
2021/11/10 03:17:16;;;;;;;;;;;;;;;3.91;62.26;101718.56;4404524;32;34267;-91
2021/11/10 03:19:47;;;;;;;;;;;;;;;3.98;61.79;101712.53;4401055;32;33032;-91
2021/11/10 03:22:15;;;;;;;;;;;;;;;3.93;62.18;101715.94;4413134;32;32526;-91
2021/11/10 03:25:06;;;;;;;;;;;;;;;4.04;62.10;101722.22;4405073;32;33120;-92
2021/11/10 03:27:34;;;;;;;;;;;;;;;3.38;63.43;101717.75;4396839;32;32630;-91
2021/11/10 03:30:04;;;;;;;;;;;;;;;3.88;62.21;101725.47;4405585;32;33279;-91
2021/11/10 03:32:33;;;;;;;;;;;;;;;3.88;62.10;101730.69;4401177;32;31884;-89
2021/11/10 03:35:02;;;;;;;;;;;;;;;3.88;62.12;101722.84;4418798;32;35002;-90
2021/11/10 03:37:31;;;;;;;;;;;;;;;3.39;63.93;101727.31;4404589;32;33885;-89
2021/11/10 03:39:59;;;;;;;;;;;;;;;3.59;63.25;101720.69;4418405;32;34919;-89
2021/11/10 03:42:29;;;;;;;;;;;;;;;3.64;63.24;101721.63;4375462;32;32301;-88
2021/11/10 03:44:57;;;;;;;;;;;;;;;3.75;64.21;101717.47;4417508;32;33745;-88
2021/11/10 03:47:25;;;;;;;;;;;;;;;3.76;65.25;101721.81;4404965;32;33284;-88
2021/11/10 03:49:53;;;;;;;;;;;;;;;3.74;66.33;101723.50;4418010;32;33716;-88
2021/11/10 03:52:21;;;;;;;;;;;;;;;3.97;65.23;101715.13;4392191;32;33313;-88
2021/11/10 03:54:49;;;;;;;;;;;;;;;3.84;65.62;101716.69;4399941;32;34294;-91
2021/11/10 03:57:18;;;;;;;;;;;;;;;3.65;66.08;101717.28;4377701;32;33372;-90
2021/11/10 03:59:47;;;;;;;;;;;;;;;4.03;65.32;101715.22;4403991;32;32991;-89
2021/11/10 04:02:14;;;;;;;;;;;;;;;3.88;67.39;101709.78;4393829;32;32306;-89
2021/11/10 04:04:42;;;;;;;;;;;;;;;3.84;69.11;101720.19;4405859;32;34196;-90
2021/11/10 04:07:11;;;;;;;;;;;;;;;4.12;66.91;101705.75;4418465;32;34685;-88
2021/11/10 04:09:39;;;;;;;;;;;;;;;3.96;67.90;101713.38;4404654;32;32932;-89
2021/11/10 04:12:08;;;;;;;;;;;;;;;4.37;67.30;101698.25;4374357;32;32565;-87
2021/11/10 04:14:37;;;;;;;;;;;;;;;4.14;67.31;101707.53;4420060;32;34865;-87
2021/11/10 04:17:07;;;;;;;;;;;;;;;4.47;66.38;101699.22;4421172;32;34283;-89
2021/11/10 04:19:35;;;;;;;;;;;;;;;4.49;66.55;101697.50;4432328;32;33935;-88
2021/11/10 04:22:04;;;;;;;;;;;;;;;4.41;66.29;101696.53;4404351;32;32902;-88
2021/11/10 04:24:32;;;;;;;;;;;;;;;4.51;66.16;101693.16;4435811;32;33960;-89
2021/11/10 04:27:00;;;;;;;;;;;;;;;4.45;66.96;101698.31;4420903;32;34219;-88
2021/11/10 04:29:28;;;;;;;;;;;;;;;4.48;66.51;101694.00;4407357;32;33054;-86
2021/11/10 04:31:55;;;;;;;;;;;;;;;4.54;66.36;101695.81;4420589;32;33088;-86
2021/11/10 04:34:23;;;;;;;;;;;;;;;4.51;66.41;101691.44;4430598;32;33710;-89
2021/11/10 04:36:52;;;;;;;;;;;;;;;4.67;66.45;101689.84;4392370;32;33065;-88
2021/11/10 04:39:20;;;;;;;;;;;;;;;4.55;66.62;101702.78;4403010;32;34455;-88
2021/11/10 04:41:48;;;;;;;;;;;;;;;4.79;65.67;101689.09;4389259;32;32493;-89
2021/11/10 04:44:16;;;;;;;;;;;;;;;4.87;66.57;101687.44;4434886;32;34466;-89
2021/11/10 04:46:44;;;;;;;;;;;;;;;5.03;65.67;101685.84;4407711;32;33485;-88
2021/11/10 04:49:12;;;;;;;;;;;;;;;4.98;65.06;101684.91;4427472;32;35033;-89
2021/11/10 04:51:41;;;;;;;;;;;;;;;4.79;65.13;101669.03;4423024;32;32277;-89
2021/11/10 04:54:09;;;;;;;;;;;;;;;4.89;65.10;101670.03;4409585;32;32422;-88
2021/11/10 04:56:37;;;;;;;;;;;;;;;4.93;64.97;101669.16;4396041;32;34050;-87
2021/11/10 04:59:05;;;;;;;;;;;;;;;4.79;65.29;101666.41;4410127;32;33888;-90
2021/11/10 05:01:43;;;;;;;;;;;;;;;4.65;65.83;101665.41;4391109;32;32106;-88
2021/11/10 05:04:11;;;;;;;;;;;;;;;4.88;65.52;101669.12;4415397;32;33910;-87
2021/11/10 05:06:39;;;;;;;;;;;;;;;4.90;66.63;101663.91;4422168;32;34679;-88
2021/11/10 05:09:07;;;;;;;;;;;;;;;4.70;67.50;101660.22;4404470;32;33102;-89
2021/11/10 05:11:36;;;;;;;;;;;;;;;4.75;67.87;101659.41;4417944;32;31790;-89
2021/11/10 05:14:04;;;;;;;;;;;;;;;5.23;66.36;101665.06;4432669;32;34183;-89
2021/11/10 05:16:32;;;;;;;;;;;;;;;5.01;66.90;101658.78;4407336;32;31777;-89
2021/11/10 05:19:01;;;;;;;;;;;;;;;4.90;66.47;101652.56;4401147;32;34140;-88
2021/11/10 05:21:29;;;;;;;;;;;;;;;4.54;68.50;101662.66;4431668;32;33939;-88
2021/11/10 05:23:56;;;;;;;;;;;;;;;5.01;67.42;101661.38;4407401;32;33633;-89
2021/11/10 05:26:24;;;;;;;;;;;;;;;4.99;67.70;101656.16;4431021;32;34630;-89
2021/11/10 05:28:51;;;;;;;;;;;;;;;4.97;67.80;101657.84;4434531;32;34078;-90
2021/11/10 05:31:19;;;;;;;;;;;;;;;5.23;66.76;101665.94;4402152;32;32509;-90
2021/11/10 05:33:46;;;;;;;;;;;;;;;5.29;67.04;101663.38;4417755;32;32771;-90
2021/11/10 05:36:14;;;;;;;;;;;;;;;5.26;66.67;101667.69;4405010;32;32727;-91
2021/11/10 05:38:41;;;;;;;;;;;;;;;5.33;67.32;101664.28;4419579;32;32625;-90
2021/11/10 05:41:09;;;;;;;;;;;;;;;5.49;66.72;101658.28;4417791;32;30303;-88
2021/11/10 05:43:36;;;;;;;;;;;;;;;4.78;67.69;101671.63;4397192;32;32959;-89
2021/11/10 05:46:04;;;;;;;;;;;;;;;5.16;66.65;101674.59;4404194;32;33669;-89
2021/11/10 05:48:32;;;;;;;;;;;;;;;5.23;66.54;101671.19;4429155;32;34377;-87
2021/11/10 05:50:59;;;;;;;;;;;;;;;5.29;66.85;101681.72;4395297;32;32051;-87
2021/11/10 05:53:26;;;;;;;;;;;;;;;5.05;67.21;101677.13;4435494;32;32915;-87
2021/11/10 05:56:07;;;;;;;;;;;;;;;5.29;66.79;101686.94;4410290;32;33073;-88
2021/11/10 05:58:38;;;;;;;;;;;;;;;5.37;67.20;101682.66;4387417;32;33634;-86
2021/11/10 06:01:05;;;;;;;;;;;;;;;5.60;67.31;101681.91;4423052;32;33341;-87
2021/11/10 06:03:33;;;;;;;;;;;;;;;5.82;66.93;101685.56;4398070;32;34214;-86
2021/11/10 06:06:00;;;;;;;;;;;;;;;5.34;68.36;101695.72;4405533;32;34290;-90
2021/11/10 06:08:28;;;;;;;;;;;;;;;5.19;68.35;101698.22;4383438;32;33055;-90
2021/11/10 06:11:07;;;;;;;;;;;;;;;5.55;67.10;101688.88;4385972;32;33516;-90
2021/11/10 06:13:35;;;;;;;;;;;;;;;5.55;67.86;101694.97;4380639;32;32757;-90
2021/11/10 06:16:03;;;;;;;;;;;;;;;5.80;67.50;101690.81;4393238;32;34270;-90
2021/11/10 06:18:31;;;;;;;;;;;;;;;5.92;67.20;101689.16;4380730;32;32901;-90
2021/11/10 06:20:59;;;;;;;;;;;;;;;6.05;67.30;101694.47;4393692;32;33412;-90
2021/11/10 06:23:26;;;;;;;;;;;;;;;6.19;67.08;101697.16;4380430;32;33709;-90
2021/11/10 06:25:54;;;;;;;;;;;;;;;6.20;66.97;101683.16;4383232;32;33625;-88
2021/11/10 06:28:21;;;;;;;;;;;;;;;5.94;67.72;101683.06;4400464;32;33205;-88
2021/11/10 06:30:49;;;;;;;;;;;;;;;6.07;69.19;101686.59;4413515;32;32119;-89
2021/11/10 06:33:18;;;;;;;;;;;;;;;6.29;68.86;101687.59;4373318;32;34197;-90
2021/11/10 06:36:16;;;;;;;;;;;;;;;6.11;68.63;101685.75;4410690;32;33216;-90
2021/11/10 06:38:44;;;;;;;;;;;;;;;6.38;68.19;101687.63;4405966;32;33801;-89
2021/11/10 06:41:18;;;;;;;;;;;;;;;6.13;69.45;101692.78;4403712;32;32153;-90
2021/11/10 06:43:46;;;;;;;;;;;;;;;6.39;69.15;101695.47;4371670;32;814201;-91
2021/11/10 06:46:34;;;;;;;;;;;;;;;6.41;69.44;101695.50;4386275;32;33279;-92
2021/11/10 06:49:40;;;;;;;;;;;;;;;6.64;69.23;101687.69;4401793;32;34092;-90
2021/11/10 06:56:10;;;;;;;;;;;;;;;6.77;68.81;101694.72;4409108;32;33403;-87
2021/11/10 06:58:38;;;;;;;;;;;;;;;6.70;70.16;101698.22;4393409;32;34440;-88
2021/11/10 07:01:05;;;;;;;;;;;;;;;7.07;69.00;101707.00;4409494;32;33508;-88
2021/11/10 07:03:33;;;;;;;;;;;;;;;7.11;68.49;101694.78;4416337;32;31861;-88
2021/11/10 07:06:01;;;;;;;;;;;;;;;7.07;68.77;101703.50;4395430;32;34464;-88
2021/11/10 07:08:28;;;;;;;;;;;;;;;7.33;68.37;101701.78;4400285;32;33825;-87
2021/11/10 07:10:56;;;;;;;;;;;;;;;7.46;68.26;101699.19;4410558;32;34168;-90
2021/11/10 07:13:23;;;;;;;;;;;;;;;7.76;67.31;101699.13;4403015;32;31891;-88
2021/11/10 07:15:51;;;;;;;;;;;;;;;7.43;68.25;101703.53;4396422;32;32935;-87
2021/11/10 07:18:18;;;;;;;;;;;;;;;7.71;67.66;101698.25;4401922;32;33327;-86
2021/11/10 07:20:46;;;;;;;;;;;;;;;7.44;68.83;101694.78;4394536;32;34234;-88
2021/11/10 07:23:13;;;;;;;;;;;;;;;7.85;67.41;101699.09;4422343;32;32338;-87
2021/11/10 07:25:40;;;;;;;;;;;;;;;7.72;68.18;101694.75;4400449;32;32829;-88
2021/11/10 07:28:08;;;;;;;;;;;;;;;7.40;69.52;101695.66;4396651;32;34515;-87
2021/11/10 07:30:37;;;;;;;;;;;;;;;7.57;69.55;101694.78;4406053;32;34228;-88
2021/11/10 07:33:04;;;;;;;;;;;;;;;7.73;68.52;101699.13;4409814;32;32323;-87
2021/11/10 07:35:32;;;;;;;;;;;;;;;8.06;67.35;101694.66;4406119;32;32703;-86
2021/11/10 07:37:59;;;;;;;;;;;;;;;8.00;67.72;101699.94;4396564;32;33115;-92
2021/11/10 07:40:52;;;;;;;;;;;;;;;7.60;68.89;101695.66;4387766;32;32630;-92
2021/11/10 07:43:32;;;;;;;;;;;;;;;7.78;68.35;101707.87;4393786;32;32979;-92
2021/11/10 07:46:26;;;;;;;;;;;;;;;7.43;69.51;101707.91;4372205;32;32685;-86
2021/11/10 07:48:53;;;;;;;;;;;;;;;8.10;68.12;101706.94;4387786;32;32676;-85
2021/11/10 07:51:21;;;;;;;;;;;;;;;8.00;68.35;101721.87;4386555;32;32630;-85
2021/11/10 07:53:48;;;;;;;;;;;;;;;8.26;67.70;101713.91;4374089;32;32018;-85
2021/11/10 07:56:15;;;;;;;;;;;;;;;8.38;66.92;101713.88;4374121;32;32855;-85
2021/11/10 07:58:43;;;;;;;;;;;;;;;8.54;66.74;101714.66;4386503;32;33500;-85
2021/11/10 08:01:11;;;;;;;;;;;;;;;8.58;67.25;101715.53;4386546;32;34773;-85
2021/11/10 08:03:39;;;;;;;;;;;;;;;8.68;67.70;101711.97;4386504;32;32681;-85
2021/11/10 08:06:06;;;;;;;;;;;;;;;8.42;68.98;101720.88;4388425;32;33329;-85
2021/11/10 08:08:33;;;;;;;;;;;;;;;8.66;68.05;101719.03;4388635;32;34097;-85
2021/11/10 08:11:01;;;;;;;;;;;;;;;8.53;68.58;101717.31;4375774;32;35064;-85
2021/11/10 08:13:28;;;;;;;;;;;;;;;8.56;68.97;101719.94;4388745;32;33590;-85
2021/11/10 08:15:56;;;;;;;;;;;;;;;8.72;68.86;101714.59;4388509;32;33291;-85
2021/11/10 08:18:25;;;;;;;;;;;;;;;8.89;67.84;101709.22;4388395;32;33501;-85
2021/11/10 08:20:52;;;;;;;;;;;;;;;8.64;68.84;101707.59;4388674;32;34079;-85
2021/11/10 08:23:20;;;;;;;;;;;;;;;8.74;68.56;101706.69;4388398;32;34054;-85
2021/11/10 08:25:48;;;;;;;;;;;;;;;8.44;69.36;101716.47;4388228;32;33769;-85
2021/11/10 08:28:16;;;;;;;;;;;;;;;8.85;68.00;101704.84;4388106;32;34267;-85
2021/11/10 08:30:43;;;;;;;;;;;;;;;8.83;67.37;101711.00;4388573;32;33864;-85
2021/11/10 08:33:11;;;;;;;;;;;;;;;9.28;65.92;101704.56;4388028;32;32953;-85
2021/11/10 08:35:38;;;;;;;;;;;;;;;8.95;67.19;101706.53;4388305;32;34853;-85
2021/11/10 08:38:05;;;;;;;;;;;;;;;9.16;67.26;101704.63;4388326;32;34292;-86
2021/11/10 08:40:33;;;;;;;;;;;;;;;9.39;66.21;101705.34;4388266;32;32932;-85
2021/11/10 08:43:00;;;;;;;;;;;;;;;9.43;65.30;101708.81;4388504;32;33372;-85
2021/11/10 08:45:32;;;;;;;;;;;;;;;9.28;65.25;101698.41;4390708;32;34832;-85
2021/11/10 08:48:04;;;;;;;;;;;;;;;9.04;66.52;101694.19;4390717;32;33790;-85
2021/11/10 08:50:33;;;;;;;;;;;;;;;9.35;66.23;101695.72;4390714;32;32798;-85
2021/11/10 08:53:01;;;;;;;;;;;;;;;9.36;67.63;101702.75;4403374;32;32500;-86
2021/11/10 08:55:28;;;;;;;;;;;;;;;9.58;64.98;101699.91;4403306;32;33981;-85
2021/11/10 08:57:56;;;;;;;;;;;;;;;9.82;64.85;101698.78;4403169;32;33436;-85
2021/11/10 09:00:24;;;;;;;;;;;;;;;10.07;63.18;101688.84;4403218;32;33952;-85
2021/11/10 09:02:52;;;;;;;;;;;;;;;9.97;63.18;101691.59;4403150;32;32943;-85
2021/11/10 09:05:21;;;;;;;;;;;;;;;10.29;61.98;101706.19;4390713;32;33129;-85
2021/11/10 09:07:48;;;;;;;;;;;;;;;10.29;62.73;101700.06;4390443;32;33381;-86
2021/11/10 09:10:17;;;;;;;;;;;;;;;10.09;63.68;101701.13;4402986;32;33892;-84
2021/11/10 09:12:44;;;;;;;;;;;;;;;9.79;62.48;101709.38;4403077;32;33473;-85
2021/11/10 09:15:13;;;;;;;;;;;;;;;9.81;63.47;101704.97;4390500;32;34801;-85
2021/11/10 09:17:41;;;;;;;;;;;;;;;10.67;61.16;101700.41;4402998;32;33272;-85
2021/11/10 09:20:12;;;;;;;;;;;;;;;10.40;61.01;101706.97;4390997;32;34171;-85
2021/11/10 09:22:40;;;;;;;;;;;;;;;10.82;59.51;101698.47;4402779;32;33725;-85
2021/11/10 09:25:08;;;;;;;;;;;;;;;10.71;60.88;101695.97;4402864;32;34862;-85
2021/11/10 09:27:35;;;;;;;;;;;;;;;10.99;60.53;101689.38;4402970;32;32850;-85
2021/11/10 09:30:04;;;;;;;;;;;;;;;11.49;59.36;101674.47;4402926;32;32862;-85
2021/11/10 09:32:31;;;;;;;;;;;;;;;11.20;58.61;101679.38;4403180;32;32299;-85
2021/11/10 09:39:01;;;;;;;;;;;;;;;11.38;58.38;101683.47;4379125;32;35002;-85
2021/11/10 09:41:29;;;;;;;;;;;;;;;11.33;57.33;101667.69;4402972;32;32851;-85
2021/11/10 09:43:58;;;;;;;;;;;;;;;11.66;56.23;101675.94;4390246;32;33001;-85
2021/11/10 09:46:26;;;;;;;;;;;;;;;11.44;57.66;101675.44;4402783;32;34164;-86
2021/11/10 09:48:54;;;;;;;;;;;;;;;11.51;57.76;101683.25;4402879;32;35032;-86
2021/11/10 09:51:21;;;;;;;;;;;;;;;11.11;58.63;101679.50;4390172;32;33558;-86
2021/11/10 09:53:49;;;;;;;;;;;;;;;10.47;60.62;101679.56;4403069;32;32664;-85
2021/11/10 09:56:17;;;;;;;;;;;;;;;11.34;57.49;101679.12;4390223;32;33571;-86
2021/11/10 09:58:47;;;;;;;;;;;;;;;11.74;57.29;101666.09;4390326;32;34625;-85
2021/11/10 10:01:14;;;;;;;;;;;;;;;11.34;58.35;101671.19;4402856;32;34089;-85
2021/11/10 10:03:44;;;;;;;;;;;;;;;11.76;56.99;101669.56;4390415;32;32154;-85
2021/11/10 10:06:13;;;;;;;;;;;;;;;11.36;57.09;101665.00;4402634;32;34022;-85
2021/11/10 10:08:41;;;;;;;;;;;;;;;11.23;58.78;101666.09;4390500;32;32648;-86
2021/11/10 10:11:10;;;;;;;;;;;;;;;11.52;58.12;101665.59;4402554;32;34282;-85
2021/11/10 10:13:37;;;;;;;;;;;;;;;11.48;57.60;101658.62;4402946;32;33790;-85
2021/11/10 10:16:05;;;;;;;;;;;;;;;11.29;56.74;101664.22;4390216;32;34927;-85
2021/11/10 10:18:33;;;;;;;;;;;;;;;10.79;58.33;101662.41;4402428;32;34930;-85
2021/11/10 10:21:00;;;;;;;;;;;;;;;11.00;58.58;101662.06;4390281;32;34273;-85
2021/11/10 10:23:30;;;;;;;;;;;;;;;10.93;58.36;101660.41;4373283;32;34124;-85
2021/11/10 10:25:57;;;;;;;;;;;;;;;11.21;56.73;101665.28;4387706;32;33644;-85
2021/11/10 10:28:26;;;;;;;;;;;;;;;10.90;57.91;101660.47;4374404;32;34336;-85
2021/11/10 10:30:55;;;;;;;;;;;;;;;10.94;57.74;101659.50;4375043;32;34600;-85
2021/11/10 10:33:24;;;;;;;;;;;;;;;11.31;56.16;101661.56;4375018;32;33844;-85
2021/11/10 10:35:52;;;;;;;;;;;;;;;11.18;56.54;101649.44;4375027;32;34226;-85
2021/11/10 10:38:21;;;;;;;;;;;;;;;11.06;57.57;101654.91;4362656;32;33648;-85
2021/11/10 10:40:50;;;;;;;;;;;;;;;11.63;56.19;101644.22;4362633;32;34839;-85
2021/11/10 10:43:19;;;;;;;;;;;;;;;10.85;58.27;101649.09;4363155;32;32956;-85
2021/11/10 10:45:50;;;;;;;;;;;;;;;11.05;57.97;101645.25;4365072;32;35136;-85
2021/11/10 10:48:19;;;;;;;;;;;;;;;11.21;57.58;101642.34;4390356;32;34106;-86
2021/11/10 10:50:55;;;;;;;;;;;;;;;11.78;55.83;101634.25;4377723;32;34510;-86
2021/11/10 10:53:30;;;;;;;;;;;;;;;11.87;55.42;101635.88;4390096;32;33309;-85
2021/11/10 10:56:00;;;;;;;;;;;;;;;11.78;56.00;101636.03;4377468;32;33080;-86
2021/11/10 10:58:32;;;;;;;;;;;;;;;11.70;55.36;101630.00;4389984;32;34243;-85
2021/11/10 11:01:00;;;;;;;;;;;;;;;10.75;58.55;101629.00;4352851;32;33804;-85
2021/11/10 11:03:28;;;;;;;;;;;;;;;11.23;56.82;101637.00;4377554;32;33382;-85
2021/11/10 11:05:56;;;;;;;;;;;;;;;11.77;56.14;101623.66;4377398;32;34046;-85
2021/11/10 11:08:24;;;;;;;;;;;;;;;11.37;57.51;101629.72;4389877;32;34064;-85
2021/11/10 11:10:53;;;;;;;;;;;;;;;11.13;57.51;101630.16;4377305;32;33839;-85
2021/11/10 11:13:25;;;;;;;;;;;;;;;10.90;57.75;101620.81;4377324;32;32981;-85
2021/11/10 11:16:05;;;;;;;;;;;;;;;11.44;56.17;101620.78;4390148;32;34180;-85
2021/11/10 11:18:33;;;;;;;;;;;;;;;11.49;56.47;101628.62;4389949;32;33393;-85
2021/11/10 11:21:22;;;;;;;;;;;;;;;11.85;55.53;101615.63;4365197;32;33281;-85
2021/11/10 11:23:53;;;;;;;;;;;;;;;11.81;55.81;101617.41;4389164;32;33305;-86
2021/11/10 11:26:34;;;;;;;;;;;;;;;11.21;57.07;101612.38;4389734;32;33823;-88
2021/11/10 11:29:21;;;;;;;;;;;;;;;11.12;57.66;101609.91;4376945;32;33299;-87
2021/11/10 11:31:49;;;;;;;;;;;;;;;11.25;57.15;101609.66;4376906;32;33609;-87
2021/11/10 11:34:16;;;;;;;;;;;;;;;11.29;57.32;101586.66;4352467;32;32724;-87
2021/11/10 11:36:48;;;;;;;;;;;;;;;11.68;56.34;101594.72;4377139;32;32917;-87
2021/11/10 11:39:17;;;;;;;;;;;;;;;11.68;56.19;101592.09;4377290;32;34306;-88
2021/11/10 11:41:44;;;;;;;;;;;;;;;11.22;56.76;101582.41;4367029;32;34581;-88
2021/11/10 11:44:11;;;;;;;;;;;;;;;11.30;56.51;101585.78;4392846;32;31919;-88
2021/11/10 11:46:40;;;;;;;;;;;;;;;11.29;57.28;101579.59;4393933;32;33262;-88
2021/11/10 11:49:08;;;;;;;;;;;;;;;11.47;56.24;101581.03;4369545;32;35120;-88
2021/11/10 11:51:35;;;;;;;;;;;;;;;11.66;55.04;101575.38;4394079;32;34140;-88
2021/11/10 11:54:04;;;;;;;;;;;;;;;12.09;54.26;101567.44;4369364;32;32502;-88
2021/11/10 11:56:31;;;;;;;;;;;;;;;12.25;53.52;101575.94;4381124;32;34049;-88
2021/11/10 11:58:59;;;;;;;;;;;;;;;11.47;55.33;101567.81;4393742;32;33156;-88
2021/11/10 12:01:27;;;;;;;;;;;;;;;11.97;54.43;101563.31;4393793;32;33213;-88
2021/11/10 12:04:02;;;;;;;;;;;;;;;12.27;53.54;101556.47;4394096;32;33062;-87
2021/11/10 12:06:30;;;;;;;;;;;;;;;11.93;53.98;101552.81;4369496;32;32713;-88
2021/11/10 12:08:59;;;;;;;;;;;;;;;12.27;53.19;101542.34;4381274;32;33277;-87
2021/11/10 12:11:27;;;;;;;;;;;;;;;11.59;55.04;101536.75;4381359;32;34147;-88
2021/11/10 12:14:06;;;;;;;;;;;;;;;12.08;53.48;101533.94;4356871;32;32900;-89
2021/11/10 12:16:43;;;;;;;;;;;;;;;11.88;54.61;101537.03;4381403;32;32942;-88
2021/11/10 12:19:11;;;;;;;;;;;;;;;11.99;55.26;101531.50;4394043;32;34952;-88
2021/11/10 12:21:41;;;;;;;;;;;;;;;12.05;54.78;101520.75;4381159;32;33265;-87
2021/11/10 12:24:09;;;;;;;;;;;;;;;12.22;54.07;101531.00;4393652;32;33402;-87
2021/11/10 12:26:55;;;;;;;;;;;;;;;11.96;54.15;101524.50;4380881;32;32864;-87
2021/11/10 12:29:42;;;;;;;;;;;;;;;12.01;54.54;101511.13;4381118;32;33091;-87
2021/11/10 12:32:10;;;;;;;;;;;;;;;11.48;56.06;101513.12;4380786;32;33666;-87
2021/11/10 12:34:37;;;;;;;;;;;;;;;11.58;54.97;101519.09;4380814;32;32352;-87
2021/11/10 12:37:10;;;;;;;;;;;;;;;11.32;55.85;101515.22;4369104;32;34193;-87
2021/11/10 12:39:39;;;;;;;;;;;;;;;10.75;57.99;101518.88;4381003;32;33532;-87
2021/11/10 12:42:12;;;;;;;;;;;;;;;10.48;58.54;101514.91;4368812;32;34377;-87
2021/11/10 12:44:47;;;;;;;;;;;;;;;10.89;57.68;101520.41;4381391;32;33371;-87
2021/11/10 12:47:48;;;;;;;;;;;;;;;10.65;58.45;101516.44;4380915;32;34200;-87
2021/11/10 12:50:36;;;;;;;;;;;;;;;10.36;59.52;101514.25;4344048;32;33197;-87
2021/11/10 12:53:07;;;;;;;;;;;;;;;10.79;58.54;101503.84;4360831;32;32944;-87
2021/11/10 12:55:36;;;;;;;;;;;;;;;10.78;58.46;101496.84;4380911;32;33448;-87
2021/11/10 12:58:13;;;;;;;;;;;;;;;9.91;61.07;101504.28;4393290;32;34336;-87
2021/11/10 13:00:41;;;;;;;;;;;;;;;10.10;60.33;101502.28;4393186;32;33967;-87
2021/11/10 13:03:32;;;;;;;;;;;;;;;10.67;58.54;101489.06;4393444;32;32830;-87